Alden, New York
Current Conditions -  °F | °C
As of 11:54 PM on Friday 24 Oct 2014 (Local Time) from KBUF Reporting Station
Overcast Overcast  
Wind Chill: 54°   Ceiling: 3800
Heat Index: 54°   Visibility: 10mi
Dew Point: 46°   Wind: 8mph
Humidity: 75%   Direction: 250°WSW
Pressure: 29.93"   Gusts: NA
Location:  42.9°N, 78.49°W
Report Text: KBUF 250354Z 25007KT 10SM OVC038 12/08 A2993 RMK AO2 SLP138 T01220078
Loading
Personal Weather Stations






























Interactive Weather Map
Tropical Storm Tracking
New forecast layout! Learn more

10-Day Weather Forecast

Advertisements
Track Severe Weather on mobile